createdAt,value
2019-03-23T00:01:32.100Z,11.10
2019-03-23T00:04:08.951Z,11.10
2019-03-23T00:06:59.792Z,11.00
2019-03-23T00:09:37.193Z,11.10
2019-03-23T00:12:27.526Z,11.10
2019-03-23T00:15:03.984Z,11.10
2019-03-23T00:17:54.846Z,11.10
2019-03-23T00:20:31.453Z,11.10
2019-03-23T00:23:22.283Z,10.90
2019-03-23T00:25:58.990Z,10.80
2019-03-23T00:28:49.049Z,10.60
2019-03-23T00:31:25.672Z,10.50
2019-03-23T00:34:15.859Z,10.40
2019-03-23T00:36:53.066Z,10.30
2019-03-23T00:39:43.649Z,10.50
2019-03-23T00:42:27.419Z,10.50
2019-03-23T00:45:17.403Z,10.50
2019-03-23T00:47:54.650Z,10.50
2019-03-23T00:50:44.920Z,10.50
2019-03-23T00:53:28.629Z,10.50
2019-03-23T00:56:25.250Z,10.50
2019-03-23T00:59:14.980Z,10.50
2019-03-23T01:01:51.339Z,10.60
2019-03-23T01:04:34.315Z,10.70
2019-03-23T01:07:18.522Z,10.70
2019-03-23T01:10:02.194Z,10.80
2019-03-23T01:12:57.494Z,10.80
2019-03-23T01:15:48.148Z,10.80
2019-03-23T01:18:24.522Z,10.70
2019-03-23T01:21:14.456Z,10.70
2019-03-23T01:23:57.641Z,10.70
2019-03-23T01:26:53.794Z,10.70
2019-03-23T01:29:43.283Z,10.80
2019-03-23T01:32:33.489Z,10.80
2019-03-23T01:35:29.747Z,10.80
2019-03-23T01:38:19.035Z,10.70
2019-03-23T01:40:55.324Z,10.70
2019-03-23T01:43:45.423Z,10.60
2019-03-23T01:46:22.707Z,10.60
2019-03-23T01:49:13.399Z,10.40
2019-03-23T01:51:57.110Z,10.50
2019-03-23T01:54:46.491Z,10.40
2019-03-23T01:57:29.654Z,10.30
2019-03-23T02:00:20.951Z,10.50
2019-03-23T02:03:04.423Z,10.50
2019-03-23T02:05:53.956Z,10.50
2019-03-23T02:08:36.869Z,10.40
2019-03-23T02:11:37.836Z,10.50
2019-03-23T02:14:41.598Z,10.50
2019-03-23T02:17:33.171Z,10.50
2019-03-23T02:20:20.650Z,10.60
2019-03-23T02:23:18.653Z,10.60
2019-03-23T02:26:11.819Z,10.50
2019-03-23T02:28:50.666Z,10.60
2019-03-23T02:31:40.352Z,10.60
2019-03-23T02:34:23.811Z,10.60
2019-03-23T02:37:27.632Z,10.50
2019-03-23T02:40:22.995Z,10.30
2019-03-23T02:43:19.120Z,10.20
2019-03-23T02:46:15.634Z,10.20
2019-03-23T02:49:05.343Z,10.20
2019-03-23T02:51:48.746Z,10.10
2019-03-23T02:54:46.234Z,10.10
2019-03-23T02:57:37.366Z,10.10
2019-03-23T03:00:17.582Z,10.10
2019-03-23T03:03:07.834Z,10.10
2019-03-23T03:05:50.963Z,10.00
2019-03-23T03:08:46.108Z,10.00
2019-03-23T03:11:42.543Z,10.00
2019-03-23T03:14:37.945Z,10.00
2019-03-23T03:17:33.370Z,10.10
2019-03-23T03:20:24.255Z,10.00
2019-03-23T03:23:01.031Z,10.00
2019-03-23T03:25:51.255Z,10.00
2019-03-23T03:28:28.260Z,9.90
2019-03-23T03:31:18.018Z,9.80
2019-03-23T03:34:07.832Z,9.70
2019-03-23T03:37:02.984Z,9.80
2019-03-23T03:39:58.941Z,9.80
2019-03-23T03:42:55.132Z,9.90
2019-03-23T03:45:51.710Z,9.90
2019-03-23T03:48:47.440Z,9.90
2019-03-23T03:51:29.822Z,9.90
2019-03-23T03:54:19.546Z,10.00
2019-03-23T03:57:02.873Z,10.00
2019-03-23T03:59:45.160Z,10.00
2019-03-23T04:02:28.800Z,10.00
2019-03-23T04:05:12.397Z,10.00
2019-03-23T04:08:09.879Z,9.90
2019-03-23T04:10:41.821Z,9.90
2019-03-23T04:13:25.667Z,9.90
2019-03-23T04:16:22.966Z,9.90
2019-03-23T04:19:05.552Z,9.80
2019-03-23T04:21:55.756Z,9.90
2019-03-23T04:24:32.666Z,9.90
2019-03-23T04:27:22.122Z,9.90
2019-03-23T04:30:20.928Z,9.80
2019-03-23T04:33:17.580Z,9.70
2019-03-23T04:36:06.803Z,9.60
2019-03-23T04:38:43.023Z,9.60
2019-03-23T04:41:32.855Z,9.50
2019-03-23T04:44:15.883Z,9.60
2019-03-23T04:47:12.368Z,9.60
2019-03-23T04:50:08.847Z,9.70
2019-03-23T04:53:04.963Z,9.70
2019-03-23T04:55:54.126Z,9.70
2019-03-23T04:58:31.630Z,9.60
2019-03-23T05:01:21.982Z,9.50
2019-03-23T05:04:05.510Z,9.60
2019-03-23T05:06:48.635Z,9.70
2019-03-23T05:09:38.299Z,9.80
2019-03-23T05:12:14.996Z,9.80
2019-03-23T05:15:04.855Z,9.70
2019-03-23T05:17:54.026Z,9.80
2019-03-23T05:20:42.698Z,9.80
2019-03-23T05:23:32.996Z,9.80
2019-03-23T05:26:16.505Z,9.80
2019-03-23T05:29:06.486Z,9.90
2019-03-23T05:31:49.463Z,9.90
2019-03-23T05:34:44.843Z,9.90
2019-03-23T05:37:34.179Z,9.90
2019-03-23T05:40:14.050Z,9.90
2019-03-23T05:43:04.937Z,9.80
2019-03-23T05:45:48.439Z,9.80
2019-03-23T05:48:38.398Z,9.80
2019-03-23T05:51:22.163Z,9.80
2019-03-23T05:54:11.868Z,9.90
2019-03-23T05:56:48.271Z,9.90
2019-03-23T05:59:38.286Z,10.00
2019-03-23T06:02:21.002Z,10.00
2019-03-23T06:05:04.863Z,10.00
2019-03-23T06:07:47.910Z,10.10
2019-03-23T06:10:31.740Z,10.20
2019-03-23T06:13:15.925Z,10.20
2019-03-23T06:15:59.158Z,10.30
2019-03-23T06:18:48.071Z,10.40
2019-03-23T06:21:32.241Z,10.50
2019-03-23T06:24:14.642Z,10.50
2019-03-23T06:26:58.850Z,10.60
2019-03-23T06:29:42.018Z,10.80
2019-03-23T06:32:24.792Z,10.90
2019-03-23T06:35:14.155Z,11.20
2019-03-23T06:38:10.385Z,11.50
2019-03-23T06:41:06.735Z,11.70
2019-03-23T06:44:02.863Z,11.90
2019-03-23T06:46:59.934Z,11.90
2019-03-23T06:49:49.656Z,12.10
2019-03-23T06:52:26.896Z,12.40
2019-03-23T06:55:16.910Z,12.50
2019-03-23T06:58:01.103Z,12.40
2019-03-23T07:00:57.957Z,12.80
2019-03-23T07:03:47.980Z,13.10
2019-03-23T07:06:25.155Z,13.30
2019-03-23T07:09:16.689Z,13.50
2019-03-23T07:12:00.899Z,13.60
2019-03-23T07:14:44.586Z,13.90
2019-03-23T07:17:41.087Z,14.00
2019-03-23T07:20:30.784Z,14.30
2019-03-23T07:23:06.955Z,14.80
2019-03-23T07:25:57.418Z,15.20
2019-03-23T07:28:33.847Z,15.00
2019-03-23T07:31:25.471Z,15.10
2019-03-23T07:34:06.255Z,15.60
2019-03-23T07:36:56.933Z,15.90
2019-03-23T07:39:33.563Z,16.50
2019-03-23T07:42:24.646Z,16.50
2019-03-23T07:45:01.471Z,16.70
2019-03-23T07:47:52.258Z,16.60
2019-03-23T07:50:29.085Z,16.50
2019-03-23T07:53:19.508Z,16.60
2019-03-23T07:56:03.308Z,16.80
2019-03-23T07:59:00.303Z,17.10
2019-03-23T08:01:56.911Z,17.30
2019-03-23T08:04:46.515Z,17.30
2019-03-23T08:07:29.443Z,17.40
2019-03-23T08:10:36.162Z,17.60
2019-03-23T08:13:32.599Z,17.60
2019-03-23T08:16:29.651Z,17.60
2019-03-23T08:19:26.036Z,17.40
2019-03-23T08:22:22.180Z,17.50
2019-03-23T08:25:20.060Z,17.70
2019-03-23T08:28:10.362Z,17.70
2019-03-23T08:30:47.262Z,17.90
2019-03-23T08:33:37.659Z,18.00
2019-03-23T08:36:14.779Z,18.10
2019-03-23T08:39:05.604Z,18.30
2019-03-23T08:41:48.906Z,18.40
2019-03-23T08:44:38.565Z,18.30
2019-03-23T08:47:14.931Z,18.30
2019-03-23T08:50:05.189Z,18.10
2019-03-23T08:52:47.745Z,18.60
2019-03-23T08:55:30.912Z,19.00
2019-03-23T08:58:14.784Z,19.20
2019-03-23T09:00:58.275Z,19.50
2019-03-23T09:03:51.782Z,19.80
2019-03-23T09:06:27.787Z,19.90
2019-03-23T09:09:12.264Z,20.10
2019-03-23T09:11:55.601Z,20.40
2019-03-23T09:14:38.832Z,20.70
2019-03-23T09:17:24.373Z,21.00
2019-03-23T09:20:24.326Z,21.20
2019-03-23T09:23:14.829Z,21.40
2019-03-23T09:26:04.984Z,21.70
2019-03-23T09:28:42.291Z,21.50
2019-03-23T09:31:36.030Z,21.50
2019-03-23T09:34:12.547Z,21.20
2019-03-23T09:37:03.200Z,21.10
2019-03-23T09:39:39.696Z,20.80
2019-03-23T09:42:29.741Z,20.50
2019-03-23T09:45:19.079Z,20.50
2019-03-23T09:47:56.158Z,20.50
2019-03-23T09:50:46.531Z,20.50
2019-03-23T09:53:30.110Z,20.50
2019-03-23T09:56:19.684Z,20.40
2019-03-23T09:59:10.507Z,20.30
2019-03-23T10:01:54.140Z,20.20
2019-03-23T10:04:39.184Z,20.30
2019-03-23T10:07:24.830Z,20.00
2019-03-23T10:10:08.612Z,20.00
2019-03-23T10:12:52.534Z,20.00
2019-03-23T10:15:36.921Z,20.00
2019-03-23T10:18:20.446Z,20.10
2019-03-23T10:21:17.569Z,19.90
2019-03-23T10:24:13.061Z,20.00
2019-03-23T10:27:04.076Z,20.00
2019-03-23T10:29:40.961Z,20.00
2019-03-23T10:32:31.323Z,20.10
2019-03-23T10:35:14.368Z,20.10
2019-03-23T10:38:04.821Z,20.10
2019-03-23T10:40:42.997Z,20.10
2019-03-23T10:43:32.839Z,20.10
2019-03-23T10:46:09.024Z,20.20
2019-03-23T10:48:59.381Z,20.30
2019-03-23T10:51:36.316Z,20.20
2019-03-23T10:54:27.421Z,20.30
2019-03-23T10:57:04.023Z,20.30
2019-03-23T10:59:54.770Z,20.40
2019-03-23T11:02:38.636Z,20.50
2019-03-23T11:05:28.531Z,20.60
2019-03-23T11:08:05.182Z,20.30
2019-03-23T11:10:54.786Z,20.20
2019-03-23T11:13:31.205Z,20.20
2019-03-23T11:16:22.456Z,20.30
2019-03-23T11:18:59.391Z,20.30
2019-03-23T11:21:55.945Z,20.40
2019-03-23T11:24:45.839Z,20.30
